sensor_id;sensor_type;location;lat;lon;timestamp;P1;durP1;ratioP1;P2;durP2;ratioP2
51654;SDS011;37732;53.106;7.030;2023-11-21T00:00:13;24.92;;;12.77;;
51654;SDS011;37732;53.106;7.030;2023-11-21T00:02:41;27.92;;;13.18;;
51654;SDS011;37732;53.106;7.030;2023-11-21T00:05:13;28.73;;;14.00;;
51654;SDS011;37732;53.106;7.030;2023-11-21T00:07:39;30.40;;;15.48;;
51654;SDS011;37732;53.106;7.030;2023-11-21T00:10:05;26.33;;;14.18;;
51654;SDS011;37732;53.106;7.030;2023-11-21T00:12:33;29.92;;;17.42;;
51654;SDS011;37732;53.106;7.030;2023-11-21T00:14:59;32.10;;;14.82;;
51654;SDS011;37732;53.106;7.030;2023-11-21T00:17:26;29.98;;;16.10;;
51654;SDS011;37732;53.106;7.030;2023-11-21T00:19:52;34.15;;;16.08;;
51654;SDS011;37732;53.106;7.030;2023-11-21T00:22:18;25.90;;;14.77;;
51654;SDS011;37732;53.106;7.030;2023-11-21T00:24:44;33.20;;;17.60;;
51654;SDS011;37732;53.106;7.030;2023-11-21T00:27:10;24.92;;;14.52;;
51654;SDS011;37732;53.106;7.030;2023-11-21T00:29:35;25.13;;;14.43;;
51654;SDS011;37732;53.106;7.030;2023-11-21T00:32:01;24.58;;;15.80;;
51654;SDS011;37732;53.106;7.030;2023-11-21T00:34:27;26.90;;;16.15;;
51654;SDS011;37732;53.106;7.030;2023-11-21T00:36:53;24.75;;;14.23;;
51654;SDS011;37732;53.106;7.030;2023-11-21T00:39:18;32.55;;;17.42;;
51654;SDS011;37732;53.106;7.030;2023-11-21T00:41:44;30.75;;;17.33;;
51654;SDS011;37732;53.106;7.030;2023-11-21T00:44:10;25.85;;;14.05;;
51654;SDS011;37732;53.106;7.030;2023-11-21T00:46:36;23.27;;;14.80;;
51654;SDS011;37732;53.106;7.030;2023-11-21T00:49:02;32.95;;;18.23;;
51654;SDS011;37732;53.106;7.030;2023-11-21T00:51:30;34.42;;;18.17;;
51654;SDS011;37732;53.106;7.030;2023-11-21T00:53:56;29.02;;;18.02;;
51654;SDS011;37732;53.106;7.030;2023-11-21T00:56:23;35.40;;;18.80;;
51654;SDS011;37732;53.106;7.030;2023-11-21T00:58:49;42.60;;;19.05;;
51654;SDS011;37732;53.106;7.030;2023-11-21T01:01:17;33.42;;;19.42;;
51654;SDS011;37732;53.106;7.030;2023-11-21T01:03:47;25.80;;;17.13;;
51654;SDS011;37732;53.106;7.030;2023-11-21T01:06:12;29.05;;;16.80;;
51654;SDS011;37732;53.106;7.030;2023-11-21T01:08:38;34.00;;;19.02;;
51654;SDS011;37732;53.106;7.030;2023-11-21T01:11:04;39.50;;;22.58;;
51654;SDS011;37732;53.106;7.030;2023-11-21T01:13:33;34.72;;;18.17;;
51654;SDS011;37732;53.106;7.030;2023-11-21T01:16:00;34.92;;;19.52;;
51654;SDS011;37732;53.106;7.030;2023-11-21T01:18:26;33.45;;;19.25;;
51654;SDS011;37732;53.106;7.030;2023-11-21T01:20:51;33.03;;;17.85;;
51654;SDS011;37732;53.106;7.030;2023-11-21T01:23:20;36.70;;;21.77;;
51654;SDS011;37732;53.106;7.030;2023-11-21T01:25:45;38.08;;;22.25;;
51654;SDS011;37732;53.106;7.030;2023-11-21T01:28:11;35.33;;;19.70;;
51654;SDS011;37732;53.106;7.030;2023-11-21T01:30:37;35.42;;;19.35;;
51654;SDS011;37732;53.106;7.030;2023-11-21T01:33:03;34.28;;;21.35;;
51654;SDS011;37732;53.106;7.030;2023-11-21T01:35:29;36.97;;;21.38;;
51654;SDS011;37732;53.106;7.030;2023-11-21T01:37:55;35.22;;;19.85;;
51654;SDS011;37732;53.106;7.030;2023-11-21T01:40:21;32.85;;;19.02;;
51654;SDS011;37732;53.106;7.030;2023-11-21T01:42:47;36.88;;;21.30;;
51654;SDS011;37732;53.106;7.030;2023-11-21T01:45:13;38.40;;;22.90;;
51654;SDS011;37732;53.106;7.030;2023-11-21T01:47:39;39.33;;;22.20;;
51654;SDS011;37732;53.106;7.030;2023-11-21T01:50:07;34.08;;;19.77;;
51654;SDS011;37732;53.106;7.030;2023-11-21T01:52:36;33.47;;;18.67;;
51654;SDS011;37732;53.106;7.030;2023-11-21T01:55:04;34.17;;;19.73;;
51654;SDS011;37732;53.106;7.030;2023-11-21T01:57:33;34.22;;;19.75;;
51654;SDS011;37732;53.106;7.030;2023-11-21T02:00:00;34.75;;;18.98;;
51654;SDS011;37732;53.106;7.030;2023-11-21T02:02:59;35.85;;;21.15;;
51654;SDS011;37732;53.106;7.030;2023-11-21T02:05:24;38.40;;;22.50;;
51654;SDS011;37732;53.106;7.030;2023-11-21T02:07:51;39.67;;;23.48;;
51654;SDS011;37732;53.106;7.030;2023-11-21T02:10:18;37.45;;;22.17;;
51654;SDS011;37732;53.106;7.030;2023-11-21T02:12:48;34.33;;;20.75;;
51654;SDS011;37732;53.106;7.030;2023-11-21T02:15:17;45.15;;;25.35;;
51654;SDS011;37732;53.106;7.030;2023-11-21T02:17:48;29.00;;;17.52;;
51654;SDS011;37732;53.106;7.030;2023-11-21T02:20:16;33.67;;;20.45;;
51654;SDS011;37732;53.106;7.030;2023-11-21T02:22:43;31.98;;;19.60;;
51654;SDS011;37732;53.106;7.030;2023-11-21T02:25:26;42.00;;;23.10;;
51654;SDS011;37732;53.106;7.030;2023-11-21T02:27:59;30.95;;;19.75;;
51654;SDS011;37732;53.106;7.030;2023-11-21T02:30:26;34.60;;;18.70;;
51654;SDS011;37732;53.106;7.030;2023-11-21T02:32:58;34.92;;;19.85;;
51654;SDS011;37732;53.106;7.030;2023-11-21T02:35:25;40.03;;;20.20;;
51654;SDS011;37732;53.106;7.030;2023-11-21T02:37:52;37.60;;;22.10;;
51654;SDS011;37732;53.106;7.030;2023-11-21T02:40:18;34.35;;;20.75;;
51654;SDS011;37732;53.106;7.030;2023-11-21T02:42:46;51.03;;;28.73;;
51654;SDS011;37732;53.106;7.030;2023-11-21T02:45:18;61.63;;;28.48;;
51654;SDS011;37732;53.106;7.030;2023-11-21T02:47:46;42.17;;;21.70;;
51654;SDS011;37732;53.106;7.030;2023-11-21T02:50:12;44.60;;;25.08;;
51654;SDS011;37732;53.106;7.030;2023-11-21T02:52:38;53.83;;;28.05;;
51654;SDS011;37732;53.106;7.030;2023-11-21T02:55:07;28.23;;;17.98;;
51654;SDS011;37732;53.106;7.030;2023-11-21T02:57:33;29.50;;;17.55;;
51654;SDS011;37732;53.106;7.030;2023-11-21T02:59:59;35.90;;;22.13;;
51654;SDS011;37732;53.106;7.030;2023-11-21T03:02:25;38.97;;;23.00;;
51654;SDS011;37732;53.106;7.030;2023-11-21T03:04:51;66.93;;;27.88;;
51654;SDS011;37732;53.106;7.030;2023-11-21T03:07:17;28.70;;;17.90;;
51654;SDS011;37732;53.106;7.030;2023-11-21T03:09:44;41.33;;;22.10;;
51654;SDS011;37732;53.106;7.030;2023-11-21T03:12:10;33.25;;;20.02;;
51654;SDS011;37732;53.106;7.030;2023-11-21T03:14:39;25.40;;;18.13;;
51654;SDS011;37732;53.106;7.030;2023-11-21T03:17:05;27.75;;;17.00;;
51654;SDS011;37732;53.106;7.030;2023-11-21T03:19:31;33.30;;;18.52;;
51654;SDS011;37732;53.106;7.030;2023-11-21T03:21:57;36.03;;;20.98;;
51654;SDS011;37732;53.106;7.030;2023-11-21T03:24:24;29.38;;;19.23;;
51654;SDS011;37732;53.106;7.030;2023-11-21T03:26:50;32.95;;;19.77;;
51654;SDS011;37732;53.106;7.030;2023-11-21T03:29:16;59.10;;;31.90;;
51654;SDS011;37732;53.106;7.030;2023-11-21T03:31:42;28.92;;;18.63;;
51654;SDS011;37732;53.106;7.030;2023-11-21T03:34:10;24.67;;;16.25;;
51654;SDS011;37732;53.106;7.030;2023-11-21T03:36:40;29.75;;;18.67;;
51654;SDS011;37732;53.106;7.030;2023-11-21T03:39:06;34.58;;;20.30;;
51654;SDS011;37732;53.106;7.030;2023-11-21T03:41:31;53.33;;;28.27;;
51654;SDS011;37732;53.106;7.030;2023-11-21T03:43:57;32.30;;;18.85;;
51654;SDS011;37732;53.106;7.030;2023-11-21T03:46:23;27.98;;;18.05;;
51654;SDS011;37732;53.106;7.030;2023-11-21T03:48:48;33.75;;;19.63;;
51654;SDS011;37732;53.106;7.030;2023-11-21T03:51:14;35.40;;;22.55;;
51654;SDS011;37732;53.106;7.030;2023-11-21T03:53:40;57.67;;;28.25;;
51654;SDS011;37732;53.106;7.030;2023-11-21T03:56:06;29.70;;;19.92;;
51654;SDS011;37732;53.106;7.030;2023-11-21T03:58:32;36.10;;;22.45;;
51654;SDS011;37732;53.106;7.030;2023-11-21T04:00:57;30.00;;;18.63;;
51654;SDS011;37732;53.106;7.030;2023-11-21T04:03:23;33.65;;;21.15;;
51654;SDS011;37732;53.106;7.030;2023-11-21T04:05:49;30.05;;;19.30;;
51654;SDS011;37732;53.106;7.030;2023-11-21T04:08:14;48.13;;;28.02;;
51654;SDS011;37732;53.106;7.030;2023-11-21T04:10:40;36.80;;;24.25;;
51654;SDS011;37732;53.106;7.030;2023-11-21T04:13:07;46.65;;;26.88;;
51654;SDS011;37732;53.106;7.030;2023-11-21T04:15:32;38.72;;;24.13;;
51654;SDS011;37732;53.106;7.030;2023-11-21T04:17:58;30.70;;;20.42;;
51654;SDS011;37732;53.106;7.030;2023-11-21T04:20:24;35.53;;;20.17;;
51654;SDS011;37732;53.106;7.030;2023-11-21T04:22:50;34.95;;;20.70;;
51654;SDS011;37732;53.106;7.030;2023-11-21T04:25:16;27.65;;;19.58;;
51654;SDS011;37732;53.106;7.030;2023-11-21T04:27:42;32.60;;;20.95;;
51654;SDS011;37732;53.106;7.030;2023-11-21T04:30:10;35.55;;;21.60;;
51654;SDS011;37732;53.106;7.030;2023-11-21T04:32:36;82.18;;;38.13;;
51654;SDS011;37732;53.106;7.030;2023-11-21T04:35:02;33.97;;;21.42;;
51654;SDS011;37732;53.106;7.030;2023-11-21T04:37:29;35.45;;;21.48;;
51654;SDS011;37732;53.106;7.030;2023-11-21T04:39:54;36.88;;;22.52;;
51654;SDS011;37732;53.106;7.030;2023-11-21T04:42:20;35.75;;;20.88;;
51654;SDS011;37732;53.106;7.030;2023-11-21T04:44:46;40.88;;;22.85;;
51654;SDS011;37732;53.106;7.030;2023-11-21T04:47:12;39.58;;;23.05;;
51654;SDS011;37732;53.106;7.030;2023-11-21T04:49:39;41.65;;;23.35;;
51654;SDS011;37732;53.106;7.030;2023-11-21T04:52:12;35.05;;;21.25;;
51654;SDS011;37732;53.106;7.030;2023-11-21T04:54:37;44.08;;;22.33;;
51654;SDS011;37732;53.106;7.030;2023-11-21T04:57:05;38.03;;;22.23;;
51654;SDS011;37732;53.106;7.030;2023-11-21T04:59:32;38.95;;;23.05;;
51654;SDS011;37732;53.106;7.030;2023-11-21T05:01:59;35.17;;;22.05;;
51654;SDS011;37732;53.106;7.030;2023-11-21T05:04:25;42.28;;;22.30;;
51654;SDS011;37732;53.106;7.030;2023-11-21T05:06:52;51.67;;;26.58;;
51654;SDS011;37732;53.106;7.030;2023-11-21T05:09:17;45.60;;;26.17;;
51654;SDS011;37732;53.106;7.030;2023-11-21T05:11:43;50.03;;;25.92;;
51654;SDS011;37732;53.106;7.030;2023-11-21T05:14:09;47.40;;;22.98;;
51654;SDS011;37732;53.106;7.030;2023-11-21T05:16:35;37.00;;;22.25;;
51654;SDS011;37732;53.106;7.030;2023-11-21T05:19:01;33.47;;;18.77;;
51654;SDS011;37732;53.106;7.030;2023-11-21T05:21:27;33.78;;;19.23;;
51654;SDS011;37732;53.106;7.030;2023-11-21T05:23:54;37.90;;;18.90;;
51654;SDS011;37732;53.106;7.030;2023-11-21T05:26:20;36.03;;;19.60;;
51654;SDS011;37732;53.106;7.030;2023-11-21T05:28:46;27.52;;;16.33;;
51654;SDS011;37732;53.106;7.030;2023-11-21T05:31:12;29.70;;;17.92;;
51654;SDS011;37732;53.106;7.030;2023-11-21T05:33:38;37.05;;;18.52;;
51654;SDS011;37732;53.106;7.030;2023-11-21T05:36:04;40.17;;;17.75;;
51654;SDS011;37732;53.106;7.030;2023-11-21T05:38:32;28.60;;;16.88;;
51654;SDS011;37732;53.106;7.030;2023-11-21T05:40:58;25.35;;;15.52;;
51654;SDS011;37732;53.106;7.030;2023-11-21T05:43:24;31.60;;;15.93;;
51654;SDS011;37732;53.106;7.030;2023-11-21T05:45:50;27.02;;;16.50;;
51654;SDS011;37732;53.106;7.030;2023-11-21T05:48:16;29.83;;;16.80;;
51654;SDS011;37732;53.106;7.030;2023-11-21T05:50:42;29.77;;;17.20;;
51654;SDS011;37732;53.106;7.030;2023-11-21T05:53:08;26.08;;;15.82;;
51654;SDS011;37732;53.106;7.030;2023-11-21T05:55:37;27.52;;;15.82;;
51654;SDS011;37732;53.106;7.030;2023-11-21T05:58:04;27.15;;;16.40;;
51654;SDS011;37732;53.106;7.030;2023-11-21T06:00:30;28.40;;;17.05;;
51654;SDS011;37732;53.106;7.030;2023-11-21T06:02:57;31.20;;;17.65;;
51654;SDS011;37732;53.106;7.030;2023-11-21T06:05:23;25.35;;;16.83;;
51654;SDS011;37732;53.106;7.030;2023-11-21T06:07:50;22.65;;;16.27;;
51654;SDS011;37732;53.106;7.030;2023-11-21T06:10:17;26.65;;;16.60;;
51654;SDS011;37732;53.106;7.030;2023-11-21T06:12:44;25.13;;;17.15;;
51654;SDS011;37732;53.106;7.030;2023-11-21T06:15:10;24.85;;;16.17;;
51654;SDS011;37732;53.106;7.030;2023-11-21T06:17:40;28.13;;;16.75;;
51654;SDS011;37732;53.106;7.030;2023-11-21T06:20:07;28.23;;;18.20;;
51654;SDS011;37732;53.106;7.030;2023-11-21T06:22:41;23.65;;;15.63;;
51654;SDS011;37732;53.106;7.030;2023-11-21T06:25:08;25.88;;;16.85;;
51654;SDS011;37732;53.106;7.030;2023-11-21T06:27:44;22.77;;;15.38;;
51654;SDS011;37732;53.106;7.030;2023-11-21T06:30:11;31.60;;;20.25;;
51654;SDS011;37732;53.106;7.030;2023-11-21T06:32:38;43.28;;;23.80;;
51654;SDS011;37732;53.106;7.030;2023-11-21T06:35:05;40.63;;;23.92;;
51654;SDS011;37732;53.106;7.030;2023-11-21T06:37:31;40.53;;;24.83;;
51654;SDS011;37732;53.106;7.030;2023-11-21T06:39:58;37.13;;;22.73;;
51654;SDS011;37732;53.106;7.030;2023-11-21T06:42:24;45.58;;;25.88;;
51654;SDS011;37732;53.106;7.030;2023-11-21T06:44:50;46.55;;;25.95;;
51654;SDS011;37732;53.106;7.030;2023-11-21T06:47:22;48.28;;;26.52;;
51654;SDS011;37732;53.106;7.030;2023-11-21T06:49:51;40.00;;;25.42;;
51654;SDS011;37732;53.106;7.030;2023-11-21T06:52:18;41.38;;;26.52;;
51654;SDS011;37732;53.106;7.030;2023-11-21T06:54:43;39.53;;;25.77;;
51654;SDS011;37732;53.106;7.030;2023-11-21T06:57:10;40.58;;;23.67;;
51654;SDS011;37732;53.106;7.030;2023-11-21T06:59:36;37.20;;;22.10;;
51654;SDS011;37732;53.106;7.030;2023-11-21T07:02:02;34.72;;;21.73;;
51654;SDS011;37732;53.106;7.030;2023-11-21T07:04:28;35.08;;;20.75;;
51654;SDS011;37732;53.106;7.030;2023-11-21T07:06:54;29.73;;;20.35;;
51654;SDS011;37732;53.106;7.030;2023-11-21T07:09:20;32.47;;;21.23;;
51654;SDS011;37732;53.106;7.030;2023-11-21T07:11:51;32.58;;;21.92;;
51654;SDS011;37732;53.106;7.030;2023-11-21T07:14:19;39.53;;;24.52;;
51654;SDS011;37732;53.106;7.030;2023-11-21T07:16:46;39.03;;;25.73;;
51654;SDS011;37732;53.106;7.030;2023-11-21T07:19:12;43.40;;;27.55;;
51654;SDS011;37732;53.106;7.030;2023-11-21T07:21:39;39.70;;;27.08;;
51654;SDS011;37732;53.106;7.030;2023-11-21T07:24:06;48.47;;;29.08;;
51654;SDS011;37732;53.106;7.030;2023-11-21T07:26:33;43.10;;;27.30;;
51654;SDS011;37732;53.106;7.030;2023-11-21T07:28:59;30.77;;;23.55;;
51654;SDS011;37732;53.106;7.030;2023-11-21T07:31:28;38.08;;;24.25;;
51654;SDS011;37732;53.106;7.030;2023-11-21T07:33:54;31.52;;;23.40;;
51654;SDS011;37732;53.106;7.030;2023-11-21T07:36:23;31.65;;;23.00;;
51654;SDS011;37732;53.106;7.030;2023-11-21T07:38:49;31.83;;;23.52;;
51654;SDS011;37732;53.106;7.030;2023-11-21T07:41:15;30.48;;;22.92;;
51654;SDS011;37732;53.106;7.030;2023-11-21T07:43:43;28.02;;;21.85;;
51654;SDS011;37732;53.106;7.030;2023-11-21T07:46:11;28.33;;;22.27;;
51654;SDS011;37732;53.106;7.030;2023-11-21T07:48:38;30.50;;;23.15;;
51654;SDS011;37732;53.106;7.030;2023-11-21T07:51:04;29.83;;;22.23;;
51654;SDS011;37732;53.106;7.030;2023-11-21T07:53:30;25.25;;;21.50;;
51654;SDS011;37732;53.106;7.030;2023-11-21T07:56:03;28.30;;;21.77;;
51654;SDS011;37732;53.106;7.030;2023-11-21T07:58:29;28.10;;;22.73;;
51654;SDS011;37732;53.106;7.030;2023-11-21T08:00:56;25.52;;;22.08;;
51654;SDS011;37732;53.106;7.030;2023-11-21T08:03:22;30.23;;;22.92;;
51654;SDS011;37732;53.106;7.030;2023-11-21T08:05:47;29.83;;;23.33;;
51654;SDS011;37732;53.106;7.030;2023-11-21T08:08:13;30.52;;;25.58;;
51654;SDS011;37732;53.106;7.030;2023-11-21T08:10:39;37.70;;;24.38;;
51654;SDS011;37732;53.106;7.030;2023-11-21T08:13:05;28.50;;;23.58;;
51654;SDS011;37732;53.106;7.030;2023-11-21T08:15:31;28.35;;;23.40;;
51654;SDS011;37732;53.106;7.030;2023-11-21T08:17:57;30.63;;;24.10;;
51654;SDS011;37732;53.106;7.030;2023-11-21T08:20:26;28.23;;;23.15;;
51654;SDS011;37732;53.106;7.030;2023-11-21T08:22:52;28.27;;;23.60;;
51654;SDS011;37732;53.106;7.030;2023-11-21T08:25:18;28.88;;;22.20;;
51654;SDS011;37732;53.106;7.030;2023-11-21T08:27:45;26.02;;;20.77;;
51654;SDS011;37732;53.106;7.030;2023-11-21T08:30:11;24.75;;;20.95;;
51654;SDS011;37732;53.106;7.030;2023-11-21T08:32:39;26.13;;;20.40;;
51654;SDS011;37732;53.106;7.030;2023-11-21T08:35:06;21.48;;;19.17;;
51654;SDS011;37732;53.106;7.030;2023-11-21T08:37:33;24.95;;;19.77;;
51654;SDS011;37732;53.106;7.030;2023-11-21T08:40:02;24.98;;;19.40;;
51654;SDS011;37732;53.106;7.030;2023-11-21T08:42:29;21.92;;;18.17;;
51654;SDS011;37732;53.106;7.030;2023-11-21T08:44:55;20.85;;;16.58;;
51654;SDS011;37732;53.106;7.030;2023-11-21T08:47:24;20.25;;;17.33;;
51654;SDS011;37732;53.106;7.030;2023-11-21T08:49:51;22.40;;;17.63;;
51654;SDS011;37732;53.106;7.030;2023-11-21T08:52:18;20.88;;;17.58;;
51654;SDS011;37732;53.106;7.030;2023-11-21T08:54:48;18.40;;;15.32;;
51654;SDS011;37732;53.106;7.030;2023-11-21T08:57:21;22.25;;;16.83;;
51654;SDS011;37732;53.106;7.030;2023-11-21T08:59:50;18.83;;;15.38;;
51654;SDS011;37732;53.106;7.030;2023-11-21T09:02:25;19.02;;;15.60;;
51654;SDS011;37732;53.106;7.030;2023-11-21T09:04:51;20.42;;;15.85;;
51654;SDS011;37732;53.106;7.030;2023-11-21T09:07:21;20.50;;;16.10;;
51654;SDS011;37732;53.106;7.030;2023-11-21T09:09:47;17.42;;;14.05;;
51654;SDS011;37732;53.106;7.030;2023-11-21T09:12:14;18.63;;;15.02;;
51654;SDS011;37732;53.106;7.030;2023-11-21T09:14:40;18.20;;;14.40;;
51654;SDS011;37732;53.106;7.030;2023-11-21T09:17:06;14.88;;;13.07;;
51654;SDS011;37732;53.106;7.030;2023-11-21T09:19:39;17.05;;;13.10;;
51654;SDS011;37732;53.106;7.030;2023-11-21T09:22:06;14.32;;;11.88;;
51654;SDS011;37732;53.106;7.030;2023-11-21T09:24:32;15.45;;;12.40;;
51654;SDS011;37732;53.106;7.030;2023-11-21T09:26:58;14.35;;;12.68;;
51654;SDS011;37732;53.106;7.030;2023-11-21T09:29:28;13.02;;;11.52;;
51654;SDS011;37732;53.106;7.030;2023-11-21T09:31:54;15.35;;;11.35;;
51654;SDS011;37732;53.106;7.030;2023-11-21T09:34:20;13.77;;;12.13;;
51654;SDS011;37732;53.106;7.030;2023-11-21T09:36:46;14.50;;;12.00;;
51654;SDS011;37732;53.106;7.030;2023-11-21T09:39:13;12.80;;;10.55;;
51654;SDS011;37732;53.106;7.030;2023-11-21T09:41:43;13.80;;;10.80;;
51654;SDS011;37732;53.106;7.030;2023-11-21T09:44:14;13.20;;;11.02;;
51654;SDS011;37732;53.106;7.030;2023-11-21T09:46:44;13.15;;;10.57;;
51654;SDS011;37732;53.106;7.030;2023-11-21T09:49:14;11.27;;;9.85;;
51654;SDS011;37732;53.106;7.030;2023-11-21T09:51:44;11.70;;;9.52;;
51654;SDS011;37732;53.106;7.030;2023-11-21T09:54:13;12.60;;;10.32;;
51654;SDS011;37732;53.106;7.030;2023-11-21T09:56:42;12.50;;;9.68;;
51654;SDS011;37732;53.106;7.030;2023-11-21T09:59:10;11.95;;;9.32;;
51654;SDS011;37732;53.106;7.030;2023-11-21T10:01:40;10.73;;;9.07;;
51654;SDS011;37732;53.106;7.030;2023-11-21T10:04:07;12.05;;;9.27;;
51654;SDS011;37732;53.106;7.030;2023-11-21T10:06:39;9.40;;;7.80;;
51654;SDS011;37732;53.106;7.030;2023-11-21T10:09:08;11.13;;;9.18;;
51654;SDS011;37732;53.106;7.030;2023-11-21T10:11:40;12.13;;;9.38;;
51654;SDS011;37732;53.106;7.030;2023-11-21T10:14:08;10.65;;;8.43;;
51654;SDS011;37732;53.106;7.030;2023-11-21T10:16:36;11.55;;;9.65;;
51654;SDS011;37732;53.106;7.030;2023-11-21T10:19:04;10.65;;;8.48;;
51654;SDS011;37732;53.106;7.030;2023-11-21T10:21:33;11.13;;;8.88;;
51654;SDS011;37732;53.106;7.030;2023-11-21T10:23:58;12.13;;;9.43;;
51654;SDS011;37732;53.106;7.030;2023-11-21T10:26:25;12.32;;;8.95;;
51654;SDS011;37732;53.106;7.030;2023-11-21T10:28:57;13.27;;;9.85;;
51654;SDS011;37732;53.106;7.030;2023-11-21T10:31:30;11.90;;;9.55;;
51654;SDS011;37732;53.106;7.030;2023-11-21T10:34:12;11.85;;;8.80;;
51654;SDS011;37732;53.106;7.030;2023-11-21T10:36:42;11.65;;;9.60;;
51654;SDS011;37732;53.106;7.030;2023-11-21T10:39:08;11.73;;;9.52;;
51654;SDS011;37732;53.106;7.030;2023-11-21T10:41:37;11.73;;;9.35;;
51654;SDS011;37732;53.106;7.030;2023-11-21T10:44:03;10.65;;;8.75;;
51654;SDS011;37732;53.106;7.030;2023-11-21T10:46:32;11.18;;;8.82;;
51654;SDS011;37732;53.106;7.030;2023-11-21T10:48:59;12.70;;;9.05;;
51654;SDS011;37732;53.106;7.030;2023-11-21T10:51:25;10.73;;;9.27;;
51654;SDS011;37732;53.106;7.030;2023-11-21T10:53:51;11.63;;;9.82;;
51654;SDS011;37732;53.106;7.030;2023-11-21T10:56:18;11.57;;;9.13;;
51654;SDS011;37732;53.106;7.030;2023-11-21T10:58:47;10.68;;;8.70;;
51654;SDS011;37732;53.106;7.030;2023-11-21T11:01:14;11.85;;;8.80;;
51654;SDS011;37732;53.106;7.030;2023-11-21T11:03:43;10.02;;;7.82;;
51654;SDS011;37732;53.106;7.030;2023-11-21T11:06:10;9.90;;;8.88;;
51654;SDS011;37732;53.106;7.030;2023-11-21T11:08:37;9.60;;;8.20;;
51654;SDS011;37732;53.106;7.030;2023-11-21T11:11:04;11.57;;;9.15;;
51654;SDS011;37732;53.106;7.030;2023-11-21T11:13:31;11.30;;;8.85;;
51654;SDS011;37732;53.106;7.030;2023-11-21T11:16:01;12.68;;;9.52;;
51654;SDS011;37732;53.106;7.030;2023-11-21T11:18:30;11.52;;;8.77;;
51654;SDS011;37732;53.106;7.030;2023-11-21T11:21:40;9.55;;;8.23;;
51654;SDS011;37732;53.106;7.030;2023-11-21T11:24:24;13.15;;;8.82;;
51654;SDS011;37732;53.106;7.030;2023-11-21T11:26:51;11.25;;;8.55;;
51654;SDS011;37732;53.106;7.030;2023-11-21T11:29:42;11.60;;;8.93;;
51654;SDS011;37732;53.106;7.030;2023-11-21T11:32:38;10.27;;;8.10;;
51654;SDS011;37732;53.106;7.030;2023-11-21T11:38:20;11.15;;;8.90;;
51654;SDS011;37732;53.106;7.030;2023-11-21T11:40:48;11.85;;;8.52;;
51654;SDS011;37732;53.106;7.030;2023-11-21T11:43:26;10.73;;;9.40;;
51654;SDS011;37732;53.106;7.030;2023-11-21T11:45:53;10.07;;;8.55;;
51654;SDS011;37732;53.106;7.030;2023-11-21T11:48:21;11.77;;;8.73;;
51654;SDS011;37732;53.106;7.030;2023-11-21T11:53:35;12.40;;;9.40;;
51654;SDS011;37732;53.106;7.030;2023-11-21T11:56:22;10.02;;;8.07;;
51654;SDS011;37732;53.106;7.030;2023-11-21T11:58:55;11.27;;;8.65;;
51654;SDS011;37732;53.106;7.030;2023-11-21T12:01:26;12.00;;;9.00;;
51654;SDS011;37732;53.106;7.030;2023-11-21T12:06:40;11.68;;;8.93;;
51654;SDS011;37732;53.106;7.030;2023-11-21T12:09:07;11.23;;;8.60;;
51654;SDS011;37732;53.106;7.030;2023-11-21T12:11:43;10.32;;;8.88;;
51654;SDS011;37732;53.106;7.030;2023-11-21T12:14:09;12.68;;;8.18;;
51654;SDS011;37732;53.106;7.030;2023-11-21T12:16:35;10.32;;;8.15;;
51654;SDS011;37732;53.106;7.030;2023-11-21T12:19:00;10.88;;;8.65;;
51654;SDS011;37732;53.106;7.030;2023-11-21T12:21:26;10.45;;;6.90;;
51654;SDS011;37732;53.106;7.030;2023-11-21T12:23:53;10.52;;;7.38;;
51654;SDS011;37732;53.106;7.030;2023-11-21T12:26:19;10.35;;;8.10;;
51654;SDS011;37732;53.106;7.030;2023-11-21T12:28:51;9.15;;;7.07;;
51654;SDS011;37732;53.106;7.030;2023-11-21T12:31:23;10.73;;;8.02;;
51654;SDS011;37732;53.106;7.030;2023-11-21T12:33:49;11.07;;;8.15;;
51654;SDS011;37732;53.106;7.030;2023-11-21T12:36:16;9.18;;;7.10;;
51654;SDS011;37732;53.106;7.030;2023-11-21T12:38:42;12.55;;;8.10;;
51654;SDS011;37732;53.106;7.030;2023-11-21T12:41:09;9.38;;;8.07;;
51654;SDS011;37732;53.106;7.030;2023-11-21T12:43:37;9.63;;;7.78;;
51654;SDS011;37732;53.106;7.030;2023-11-21T12:46:08;10.85;;;8.13;;
51654;SDS011;37732;53.106;7.030;2023-11-21T12:48:38;10.90;;;8.82;;
51654;SDS011;37732;53.106;7.030;2023-11-21T12:51:10;8.80;;;7.50;;
51654;SDS011;37732;53.106;7.030;2023-11-21T12:53:40;10.55;;;7.97;;
51654;SDS011;37732;53.106;7.030;2023-11-21T12:56:07;9.98;;;7.50;;
51654;SDS011;37732;53.106;7.030;2023-11-21T12:58:37;11.15;;;7.70;;
51654;SDS011;37732;53.106;7.030;2023-11-21T13:01:05;10.23;;;7.65;;
51654;SDS011;37732;53.106;7.030;2023-11-21T13:03:37;9.50;;;7.93;;
51654;SDS011;37732;53.106;7.030;2023-11-21T13:06:06;9.57;;;7.82;;
51654;SDS011;37732;53.106;7.030;2023-11-21T13:08:35;10.23;;;7.70;;
51654;SDS011;37732;53.106;7.030;2023-11-21T13:11:04;9.90;;;7.50;;
51654;SDS011;37732;53.106;7.030;2023-11-21T13:13:31;9.15;;;7.22;;
51654;SDS011;37732;53.106;7.030;2023-11-21T13:15:58;10.10;;;8.60;;
51654;SDS011;37732;53.106;7.030;2023-11-21T13:18:31;11.60;;;7.93;;
51654;SDS011;37732;53.106;7.030;2023-11-21T13:20:58;11.95;;;7.63;;
51654;SDS011;37732;53.106;7.030;2023-11-21T13:23:24;9.90;;;7.55;;
51654;SDS011;37732;53.106;7.030;2023-11-21T13:25:51;10.63;;;8.32;;
51654;SDS011;37732;53.106;7.030;2023-11-21T13:28:20;9.57;;;7.38;;
51654;SDS011;37732;53.106;7.030;2023-11-21T13:30:47;11.25;;;7.68;;
51654;SDS011;37732;53.106;7.030;2023-11-21T13:33:13;12.32;;;8.25;;
51654;SDS011;37732;53.106;7.030;2023-11-21T13:35:43;10.93;;;7.82;;
51654;SDS011;37732;53.106;7.030;2023-11-21T13:38:14;10.15;;;7.90;;
51654;SDS011;37732;53.106;7.030;2023-11-21T13:40:42;10.63;;;7.90;;
51654;SDS011;37732;53.106;7.030;2023-11-21T13:43:14;10.50;;;7.65;;
51654;SDS011;37732;53.106;7.030;2023-11-21T13:45:41;9.38;;;7.55;;
51654;SDS011;37732;53.106;7.030;2023-11-21T13:48:08;10.43;;;7.97;;
51654;SDS011;37732;53.106;7.030;2023-11-21T13:50:42;11.43;;;8.20;;
51654;SDS011;37732;53.106;7.030;2023-11-21T13:53:23;10.32;;;8.95;;
51654;SDS011;37732;53.106;7.030;2023-11-21T13:55:49;9.32;;;7.40;;
51654;SDS011;37732;53.106;7.030;2023-11-21T13:58:17;11.98;;;8.52;;
51654;SDS011;37732;53.106;7.030;2023-11-21T14:00:45;9.02;;;7.40;;
51654;SDS011;37732;53.106;7.030;2023-11-21T14:03:12;8.60;;;6.93;;
51654;SDS011;37732;53.106;7.030;2023-11-21T14:05:46;12.85;;;6.75;;
51654;SDS011;37732;53.106;7.030;2023-11-21T14:08:18;10.75;;;7.00;;
51654;SDS011;37732;53.106;7.030;2023-11-21T14:10:53;10.35;;;6.82;;
51654;SDS011;37732;53.106;7.030;2023-11-21T14:13:23;8.93;;;6.50;;
51654;SDS011;37732;53.106;7.030;2023-11-21T14:15:49;8.80;;;6.75;;
51654;SDS011;37732;53.106;7.030;2023-11-21T14:18:19;8.73;;;6.57;;
51654;SDS011;37732;53.106;7.030;2023-11-21T14:20:52;9.27;;;6.65;;
51654;SDS011;37732;53.106;7.030;2023-11-21T14:23:18;8.13;;;6.55;;
51654;SDS011;37732;53.106;7.030;2023-11-21T14:25:43;9.50;;;6.53;;
51654;SDS011;37732;53.106;7.030;2023-11-21T14:28:09;10.13;;;6.70;;
51654;SDS011;37732;53.106;7.030;2023-11-21T14:30:37;7.95;;;6.43;;
51654;SDS011;37732;53.106;7.030;2023-11-21T14:33:05;11.25;;;6.30;;
51654;SDS011;37732;53.106;7.030;2023-11-21T14:35:33;7.32;;;5.65;;
51654;SDS011;37732;53.106;7.030;2023-11-21T14:37:59;10.63;;;6.38;;